sensor_id;sensor_type;location;lat;lon;timestamp;temperature;humidity
15274;DHT22;7738;49.532;11.156;2022-12-11T01:12:37;-3.30;99.90
15274;DHT22;7738;49.532;11.156;2022-12-11T01:15:08;-3.20;99.90
15274;DHT22;7738;49.532;11.156;2022-12-11T01:17:39;-3.60;99.90
15274;DHT22;7738;49.532;11.156;2022-12-11T01:20:10;-2.70;99.90
15274;DHT22;7738;49.532;11.156;2022-12-11T01:22:40;-3.40;99.90
15274;DHT22;7738;49.532;11.156;2022-12-11T01:25:10;-3.40;99.90
15274;DHT22;7738;49.532;11.156;2022-12-11T01:27:42;-3.30;99.90
15274;DHT22;7738;49.532;11.156;2022-12-11T01:30:13;-3.40;99.90
15274;DHT22;7738;49.532;11.156;2022-12-11T01:35:13;-3.60;99.90
15274;DHT22;7738;49.532;11.156;2022-12-11T01:40:15;-3.90;99.90
15274;DHT22;7738;49.532;11.156;2022-12-11T01:42:48;-2.60;99.90
15274;DHT22;7738;49.532;11.156;2022-12-11T01:45:31;-3.50;99.90
15274;DHT22;7738;49.532;11.156;2022-12-11T01:48:05;-3.60;99.90
15274;DHT22;7738;49.532;11.156;2022-12-11T01:50:40;-3.90;99.90
15274;DHT22;7738;49.532;11.156;2022-12-11T01:53:14;-3.80;99.90
15274;DHT22;7738;49.532;11.156;2022-12-11T01:55:46;-3.80;99.90
15274;DHT22;7738;49.532;11.156;2022-12-11T01:58:20;-3.90;99.90
15274;DHT22;7738;49.532;11.156;2022-12-11T02:00:53;-3.90;99.90
15274;DHT22;7738;49.532;11.156;2022-12-11T02:03:23;-3.80;99.90
15274;DHT22;7738;49.532;11.156;2022-12-11T02:08:24;-3.90;99.90
15274;DHT22;7738;49.532;11.156;2022-12-11T02:11:03;-4.00;99.90
15274;DHT22;7738;49.532;11.156;2022-12-11T02:13:42;-3.90;99.90
15274;DHT22;7738;49.532;11.156;2022-12-11T02:16:20;-4.10;99.90
15274;DHT22;7738;49.532;11.156;2022-12-11T02:18:58;-3.90;99.90
15274;DHT22;7738;49.532;11.156;2022-12-11T02:21:33;-3.90;99.90
15274;DHT22;7738;49.532;11.156;2022-12-11T02:24:26;-3.40;99.90
15274;DHT22;7738;49.532;11.156;2022-12-11T02:27:18;-3.40;99.90
15274;DHT22;7738;49.532;11.156;2022-12-11T02:29:53;-3.90;99.90
15274;DHT22;7738;49.532;11.156;2022-12-11T02:32:31;-4.20;99.90
15274;DHT22;7738;49.532;11.156;2022-12-11T02:35:08;-4.00;99.90
15274;DHT22;7738;49.532;11.156;2022-12-11T02:37:42;-3.00;99.90
15274;DHT22;7738;49.532;11.156;2022-12-11T02:40:17;-4.10;99.90
15274;DHT22;7738;49.532;11.156;2022-12-11T02:42:48;-4.10;99.90
15274;DHT22;7738;49.532;11.156;2022-12-11T02:45:23;-4.00;99.90
15274;DHT22;7738;49.532;11.156;2022-12-11T02:47:56;-4.10;99.90
15274;DHT22;7738;49.532;11.156;2022-12-11T02:50:27;-4.10;99.90
15274;DHT22;7738;49.532;11.156;2022-12-11T02:52:59;-4.00;99.90
15274;DHT22;7738;49.532;11.156;2022-12-11T02:55:31;-4.00;99.90
15274;DHT22;7738;49.532;11.156;2022-12-11T02:58:05;-3.90;99.90
15274;DHT22;7738;49.532;11.156;2022-12-11T03:00:39;-3.50;99.90
15274;DHT22;7738;49.532;11.156;2022-12-11T03:03:09;-4.00;99.90
15274;DHT22;7738;49.532;11.156;2022-12-11T03:05:39;-4.10;99.90
15274;DHT22;7738;49.532;11.156;2022-12-11T03:08:12;-3.80;99.90
15274;DHT22;7738;49.532;11.156;2022-12-11T03:10:44;-4.80;99.90
15274;DHT22;7738;49.532;11.156;2022-12-11T03:13:17;-4.00;99.90
15274;DHT22;7738;49.532;11.156;2022-12-11T03:16:05;-4.20;99.90
15274;DHT22;7738;49.532;11.156;2022-12-11T03:18:40;-3.90;99.90
15274;DHT22;7738;49.532;11.156;2022-12-11T03:21:16;-4.10;99.90
15274;DHT22;7738;49.532;11.156;2022-12-11T03:23:50;-3.90;99.90
15274;DHT22;7738;49.532;11.156;2022-12-11T03:28:57;-3.80;99.90
15274;DHT22;7738;49.532;11.156;2022-12-11T03:31:33;-3.80;99.90
15274;DHT22;7738;49.532;11.156;2022-12-11T03:34:10;-3.90;99.90
15274;DHT22;7738;49.532;11.156;2022-12-11T03:36:45;-3.80;99.90
15274;DHT22;7738;49.532;11.156;2022-12-11T03:39:19;-3.80;99.90
15274;DHT22;7738;49.532;11.156;2022-12-11T03:41:52;-3.80;99.90
15274;DHT22;7738;49.532;11.156;2022-12-11T03:44:23;-3.90;99.90
15274;DHT22;7738;49.532;11.156;2022-12-11T03:46:56;-3.70;99.90
15274;DHT22;7738;49.532;11.156;2022-12-11T03:49:32;-3.70;99.90
15274;DHT22;7738;49.532;11.156;2022-12-11T03:52:04;-3.70;99.90
15274;DHT22;7738;49.532;11.156;2022-12-11T03:54:35;-3.70;99.90
15274;DHT22;7738;49.532;11.156;2022-12-11T03:57:08;-3.60;99.90
15274;DHT22;7738;49.532;11.156;2022-12-11T03:59:39;-3.50;99.90
15274;DHT22;7738;49.532;11.156;2022-12-11T04:02:11;-4.00;99.90
15274;DHT22;7738;49.532;11.156;2022-12-11T04:04:41;-3.70;99.90
15274;DHT22;7738;49.532;11.156;2022-12-11T04:07:11;-3.60;99.90
15274;DHT22;7738;49.532;11.156;2022-12-11T04:09:41;-3.50;99.90
15274;DHT22;7738;49.532;11.156;2022-12-11T04:17:27;-3.50;99.90
15274;DHT22;7738;49.532;11.156;2022-12-11T04:20:10;-3.50;99.90
15274;DHT22;7738;49.532;11.156;2022-12-11T04:22:53;-3.30;99.90
15274;DHT22;7738;49.532;11.156;2022-12-11T04:28:05;-3.60;99.90
15274;DHT22;7738;49.532;11.156;2022-12-11T04:33:08;-3.50;99.90
15274;DHT22;7738;49.532;11.156;2022-12-11T04:35:38;-3.50;99.90
15274;DHT22;7738;49.532;11.156;2022-12-11T04:38:08;-3.70;99.90
15274;DHT22;7738;49.532;11.156;2022-12-11T04:40:38;-3.40;99.90
15274;DHT22;7738;49.532;11.156;2022-12-11T04:43:07;-3.60;99.90
15274;DHT22;7738;49.532;11.156;2022-12-11T04:48:10;-3.50;99.90
15274;DHT22;7738;49.532;11.156;2022-12-11T04:50:40;-3.50;99.90
15274;DHT22;7738;49.532;11.156;2022-12-11T04:53:10;-3.40;99.90
15274;DHT22;7738;49.532;11.156;2022-12-11T04:55:40;-3.40;99.90
15274;DHT22;7738;49.532;11.156;2022-12-11T05:00:40;-2.70;99.90
15274;DHT22;7738;49.532;11.156;2022-12-11T05:03:13;-3.80;99.90
15274;DHT22;7738;49.532;11.156;2022-12-11T05:05:47;-3.20;99.90
15274;DHT22;7738;49.532;11.156;2022-12-11T05:08:17;-3.50;99.90
15274;DHT22;7738;49.532;11.156;2022-12-11T05:10:54;-3.40;99.90
15274;DHT22;7738;49.532;11.156;2022-12-11T05:18:27;-2.20;99.90
15274;DHT22;7738;49.532;11.156;2022-12-11T05:20:59;-3.40;99.90
15274;DHT22;7738;49.532;11.156;2022-12-11T05:26:02;-3.60;99.90
15274;DHT22;7738;49.532;11.156;2022-12-11T05:28:34;-3.50;99.90
15274;DHT22;7738;49.532;11.156;2022-12-11T05:31:07;-3.30;99.90
15274;DHT22;7738;49.532;11.156;2022-12-11T05:33:40;-3.10;99.90
15274;DHT22;7738;49.532;11.156;2022-12-11T05:36:14;-3.30;99.90
15274;DHT22;7738;49.532;11.156;2022-12-11T05:38:45;-3.20;99.90
15274;DHT22;7738;49.532;11.156;2022-12-11T05:41:17;-3.20;99.90
15274;DHT22;7738;49.532;11.156;2022-12-11T05:46:20;-3.70;99.90
15274;DHT22;7738;49.532;11.156;2022-12-11T05:48:55;-2.90;99.90
15274;DHT22;7738;49.532;11.156;2022-12-11T05:51:25;-3.20;99.90
15274;DHT22;7738;49.532;11.156;2022-12-11T05:53:56;-3.40;99.90
15274;DHT22;7738;49.532;11.156;2022-12-11T05:56:28;-3.30;99.90
15274;DHT22;7738;49.532;11.156;2022-12-11T05:58:59;-3.60;99.90
15274;DHT22;7738;49.532;11.156;2022-12-11T06:01:33;-3.50;99.90
15274;DHT22;7738;49.532;11.156;2022-12-11T06:04:07;-3.00;99.90
15274;DHT22;7738;49.532;11.156;2022-12-11T06:06:38;-3.30;99.90
15274;DHT22;7738;49.532;11.156;2022-12-11T06:09:12;-3.40;99.90
15274;DHT22;7738;49.532;11.156;2022-12-11T06:16:42;-3.70;99.90
15274;DHT22;7738;49.532;11.156;2022-12-11T06:19:16;-3.70;99.90
15274;DHT22;7738;49.532;11.156;2022-12-11T06:21:46;-2.60;99.90
15274;DHT22;7738;49.532;11.156;2022-12-11T06:24:16;-3.50;99.90
15274;DHT22;7738;49.532;11.156;2022-12-11T06:29:16;-3.80;99.90
15274;DHT22;7738;49.532;11.156;2022-12-11T06:31:48;-3.50;99.90
15274;DHT22;7738;49.532;11.156;2022-12-11T06:34:21;-3.60;99.90
15274;DHT22;7738;49.532;11.156;2022-12-11T06:36:51;-3.90;99.90
15274;DHT22;7738;49.532;11.156;2022-12-11T06:44:21;-3.70;99.90
15274;DHT22;7738;49.532;11.156;2022-12-11T06:46:51;-4.10;99.90
15274;DHT22;7738;49.532;11.156;2022-12-11T06:49:24;-3.90;99.90
15274;DHT22;7738;49.532;11.156;2022-12-11T06:51:54;-3.70;99.90
15274;DHT22;7738;49.532;11.156;2022-12-11T06:54:25;-3.80;99.90
15274;DHT22;7738;49.532;11.156;2022-12-11T06:56:55;-3.60;99.90
15274;DHT22;7738;49.532;11.156;2022-12-11T06:59:25;-3.80;99.90
15274;DHT22;7738;49.532;11.156;2022-12-11T07:04:28;-3.70;99.90
15274;DHT22;7738;49.532;11.156;2022-12-11T07:06:58;-2.60;99.90
15274;DHT22;7738;49.532;11.156;2022-12-11T10:01:32;-2.90;99.90
15274;DHT22;7738;49.532;11.156;2022-12-11T10:04:23;-2.90;99.90
15274;DHT22;7738;49.532;11.156;2022-12-11T10:07:06;-2.80;99.90
15274;DHT22;7738;49.532;11.156;2022-12-11T10:09:43;-2.90;99.90
15274;DHT22;7738;49.532;11.156;2022-12-11T10:12:30;-2.90;99.90
15274;DHT22;7738;49.532;11.156;2022-12-11T10:15:20;-2.90;99.90
15274;DHT22;7738;49.532;11.156;2022-12-11T10:17:54;-2.90;99.90
15274;DHT22;7738;49.532;11.156;2022-12-11T10:20:32;-2.90;99.90
15274;DHT22;7738;49.532;11.156;2022-12-11T10:23:11;-2.90;99.90
15274;DHT22;7738;49.532;11.156;2022-12-11T10:25:47;-2.90;99.90
15274;DHT22;7738;49.532;11.156;2022-12-11T10:28:18;-2.90;99.90
15274;DHT22;7738;49.532;11.156;2022-12-11T10:41:03;-2.80;99.90
15274;DHT22;7738;49.532;11.156;2022-12-11T10:43:36;-2.60;99.90
15274;DHT22;7738;49.532;11.156;2022-12-11T10:46:15;-2.60;99.90
15274;DHT22;7738;49.532;11.156;2022-12-11T10:53:52;-2.50;99.90
15274;DHT22;7738;49.532;11.156;2022-12-11T10:56:33;-2.40;99.90
15274;DHT22;7738;49.532;11.156;2022-12-11T11:24:40;-2.20;99.90
15274;DHT22;7738;49.532;11.156;2022-12-11T11:35:17;-1.90;99.90
15274;DHT22;7738;49.532;11.156;2022-12-11T11:43:06;-2.00;99.90
15274;DHT22;7738;49.532;11.156;2022-12-11T12:01:13;-2.60;99.90
15274;DHT22;7738;49.532;11.156;2022-12-11T12:03:44;-2.60;99.90
15274;DHT22;7738;49.532;11.156;2022-12-11T12:08:55;-2.60;99.90
15274;DHT22;7738;49.532;11.156;2022-12-11T12:11:32;-2.50;99.90
15274;DHT22;7738;49.532;11.156;2022-12-11T12:14:14;-2.50;99.90
15274;DHT22;7738;49.532;11.156;2022-12-11T12:17:15;-2.60;99.90
15274;DHT22;7738;49.532;11.156;2022-12-11T12:35:33;-2.30;99.90
15274;DHT22;7738;49.532;11.156;2022-12-11T12:38:13;-2.40;99.90
15274;DHT22;7738;49.532;11.156;2022-12-11T12:54:00;-2.20;99.90
15274;DHT22;7738;49.532;11.156;2022-12-11T13:04:37;-2.10;99.90
15274;DHT22;7738;49.532;11.156;2022-12-11T13:07:26;-2.30;99.90
15274;DHT22;7738;49.532;11.156;2022-12-11T13:10:00;-2.30;99.90
15274;DHT22;7738;49.532;11.156;2022-12-11T13:12:33;-2.30;99.90
15274;DHT22;7738;49.532;11.156;2022-12-11T13:15:21;-2.30;99.90
15274;DHT22;7738;49.532;11.156;2022-12-11T13:17:54;-2.50;99.90
15274;DHT22;7738;49.532;11.156;2022-12-11T13:20:26;-2.50;99.90
15274;DHT22;7738;49.532;11.156;2022-12-11T13:23:15;-2.40;99.90
15274;DHT22;7738;49.532;11.156;2022-12-11T13:25:49;-2.70;99.90
15274;DHT22;7738;49.532;11.156;2022-12-11T13:28:23;-3.10;99.90
15274;DHT22;7738;49.532;11.156;2022-12-11T13:31:02;-2.70;99.90
15274;DHT22;7738;49.532;11.156;2022-12-11T13:33:42;-2.90;99.90
15274;DHT22;7738;49.532;11.156;2022-12-11T13:36:29;-2.70;99.90
15274;DHT22;7738;49.532;11.156;2022-12-11T13:39:02;-2.90;99.90
15274;DHT22;7738;49.532;11.156;2022-12-11T13:41:35;-2.00;99.90
15274;DHT22;7738;49.532;11.156;2022-12-11T13:46:38;-2.90;99.90
15274;DHT22;7738;49.532;11.156;2022-12-11T13:49:19;-2.90;99.90
15274;DHT22;7738;49.532;11.156;2022-12-11T13:51:52;-2.90;99.90
15274;DHT22;7738;49.532;11.156;2022-12-11T13:56:57;-2.80;99.90
15274;DHT22;7738;49.532;11.156;2022-12-11T13:59:31;-2.80;99.90
15274;DHT22;7738;49.532;11.156;2022-12-11T14:02:04;-2.80;99.90
15274;DHT22;7738;49.532;11.156;2022-12-11T14:04:44;-2.80;99.90
15274;DHT22;7738;49.532;11.156;2022-12-11T14:07:16;-2.90;99.90
15274;DHT22;7738;49.532;11.156;2022-12-11T14:09:49;-2.90;99.90
15274;DHT22;7738;49.532;11.156;2022-12-11T14:12:20;-2.90;99.90
15274;DHT22;7738;49.532;11.156;2022-12-11T14:14:53;-2.90;99.90
15274;DHT22;7738;49.532;11.156;2022-12-11T14:17:26;-2.90;99.90
15274;DHT22;7738;49.532;11.156;2022-12-11T14:20:04;-2.90;99.90
15274;DHT22;7738;49.532;11.156;2022-12-11T14:25:18;-2.80;99.90
15274;DHT22;7738;49.532;11.156;2022-12-11T14:27:51;-3.00;99.90
15274;DHT22;7738;49.532;11.156;2022-12-11T14:30:24;-3.30;99.90
15274;DHT22;7738;49.532;11.156;2022-12-11T14:32:56;-3.10;99.90
15274;DHT22;7738;49.532;11.156;2022-12-11T14:35:32;-3.10;99.90
15274;DHT22;7738;49.532;11.156;2022-12-11T14:38:12;-3.10;99.90
15274;DHT22;7738;49.532;11.156;2022-12-11T14:40:47;-3.10;99.90
15274;DHT22;7738;49.532;11.156;2022-12-11T14:43:22;-3.00;99.90
15274;DHT22;7738;49.532;11.156;2022-12-11T14:45:58;-3.10;99.90
15274;DHT22;7738;49.532;11.156;2022-12-11T14:48:33;-3.30;99.90
15274;DHT22;7738;49.532;11.156;2022-12-11T14:51:10;-3.10;99.90
15274;DHT22;7738;49.532;11.156;2022-12-11T14:53:45;-3.10;99.90
15274;DHT22;7738;49.532;11.156;2022-12-11T14:56:18;-3.10;99.90
15274;DHT22;7738;49.532;11.156;2022-12-11T14:58:54;-3.10;99.90
15274;DHT22;7738;49.532;11.156;2022-12-11T15:01:27;-3.10;99.90
15274;DHT22;7738;49.532;11.156;2022-12-11T15:04:04;-3.20;99.90
15274;DHT22;7738;49.532;11.156;2022-12-11T15:06:43;-3.10;99.90
15274;DHT22;7738;49.532;11.156;2022-12-11T15:09:18;-3.30;99.90
15274;DHT22;7738;49.532;11.156;2022-12-11T15:11:49;-3.10;99.90
15274;DHT22;7738;49.532;11.156;2022-12-11T15:14:21;-3.20;99.90
15274;DHT22;7738;49.532;11.156;2022-12-11T15:16:54;-3.20;99.90
15274;DHT22;7738;49.532;11.156;2022-12-11T15:19:29;-3.20;99.90
15274;DHT22;7738;49.532;11.156;2022-12-11T15:22:03;-3.20;99.90
15274;DHT22;7738;49.532;11.156;2022-12-11T15:24:37;-3.20;99.90
15274;DHT22;7738;49.532;11.156;2022-12-11T15:27:20;-3.20;99.90
15274;DHT22;7738;49.532;11.156;2022-12-11T15:32:22;-3.20;99.90
15274;DHT22;7738;49.532;11.156;2022-12-11T15:34:54;-3.30;99.90
15274;DHT22;7738;49.532;11.156;2022-12-11T15:37:29;-3.20;99.90
15274;DHT22;7738;49.532;11.156;2022-12-11T15:40:03;-3.40;99.90
15274;DHT22;7738;49.532;11.156;2022-12-11T15:42:34;-3.20;99.90
15274;DHT22;7738;49.532;11.156;2022-12-11T15:45:07;-3.30;99.90
15274;DHT22;7738;49.532;11.156;2022-12-11T15:47:39;-3.40;99.90
15274;DHT22;7738;49.532;11.156;2022-12-11T15:50:14;-3.30;99.90
15274;DHT22;7738;49.532;11.156;2022-12-11T15:52:48;-3.30;99.90
15274;DHT22;7738;49.532;11.156;2022-12-11T15:55:20;-3.20;99.90
15274;DHT22;7738;49.532;11.156;2022-12-11T15:57:53;-3.30;99.90
15274;DHT22;7738;49.532;11.156;2022-12-11T16:02:55;-3.30;99.90
15274;DHT22;7738;49.532;11.156;2022-12-11T16:07:58;-3.50;99.90
15274;DHT22;7738;49.532;11.156;2022-12-11T16:18:01;-3.40;99.90
15274;DHT22;7738;49.532;11.156;2022-12-11T16:20:32;-3.40;99.90
15274;DHT22;7738;49.532;11.156;2022-12-11T16:23:05;-3.30;99.90
15274;DHT22;7738;49.532;11.156;2022-12-11T16:25:36;-3.50;99.90
15274;DHT22;7738;49.532;11.156;2022-12-11T16:28:08;-3.50;99.90
15274;DHT22;7738;49.532;11.156;2022-12-11T16:30:39;-3.70;99.90
15274;DHT22;7738;49.532;11.156;2022-12-11T16:38:15;-3.40;99.90
15274;DHT22;7738;49.532;11.156;2022-12-11T16:45:52;-3.80;99.90
15274;DHT22;7738;49.532;11.156;2022-12-11T16:48:23;-3.80;99.90
15274;DHT22;7738;49.532;11.156;2022-12-11T16:53:28;-3.60;99.90
15274;DHT22;7738;49.532;11.156;2022-12-11T17:03:31;-3.90;99.90
15274;DHT22;7738;49.532;11.156;2022-12-11T17:06:04;-4.00;99.90
15274;DHT22;7738;49.532;11.156;2022-12-11T17:08:38;-4.00;99.90
15274;DHT22;7738;49.532;11.156;2022-12-11T17:11:10;-4.00;99.90
15274;DHT22;7738;49.532;11.156;2022-12-11T17:16:13;-4.10;99.90
15274;DHT22;7738;49.532;11.156;2022-12-11T17:18:44;-3.80;99.90
15274;DHT22;7738;49.532;11.156;2022-12-11T17:21:16;-3.90;99.90
15274;DHT22;7738;49.532;11.156;2022-12-11T17:23:49;-3.80;99.90
15274;DHT22;7738;49.532;11.156;2022-12-11T17:38:56;-3.90;99.90
15274;DHT22;7738;49.532;11.156;2022-12-11T17:54:00;-3.80;99.90
15274;DHT22;7738;49.532;11.156;2022-12-11T18:01:32;-4.00;99.90
15274;DHT22;7738;49.532;11.156;2022-12-11T18:09:06;-3.80;99.90
15274;DHT22;7738;49.532;11.156;2022-12-11T18:16:43;-3.70;99.90
15274;DHT22;7738;49.532;11.156;2022-12-11T18:21:45;-3.80;99.90
15274;DHT22;7738;49.532;11.156;2022-12-11T18:24:18;-3.80;99.90
15274;DHT22;7738;49.532;11.156;2022-12-11T18:34:20;-3.50;99.90
15274;DHT22;7738;49.532;11.156;2022-12-11T18:39:23;-3.80;99.90
15274;DHT22;7738;49.532;11.156;2022-12-11T18:47:14;-4.00;99.90
15274;DHT22;7738;49.532;11.156;2022-12-11T18:54:48;-3.80;99.90
15274;DHT22;7738;49.532;11.156;2022-12-11T18:59:49;-3.80;99.90
15274;DHT22;7738;49.532;11.156;2022-12-11T19:02:20;-3.70;99.90
15274;DHT22;7738;49.532;11.156;2022-12-11T19:09:54;-3.80;99.90
15274;DHT22;7738;49.532;11.156;2022-12-11T19:22:45;-3.90;99.90
15274;DHT22;7738;49.532;11.156;2022-12-11T19:25:18;-3.80;99.90
15274;DHT22;7738;49.532;11.156;2022-12-11T19:40:23;-3.80;99.90
15274;DHT22;7738;49.532;11.156;2022-12-11T19:50:24;-4.00;99.90
15274;DHT22;7738;49.532;11.156;2022-12-11T19:52:54;-3.80;99.90
15274;DHT22;7738;49.532;11.156;2022-12-11T19:55:26;-3.70;99.90
15274;DHT22;7738;49.532;11.156;2022-12-11T19:57:57;-3.70;99.90
15274;DHT22;7738;49.532;11.156;2022-12-11T20:00:27;-3.70;99.90
15274;DHT22;7738;49.532;11.156;2022-12-11T20:02:57;-3.70;99.90
15274;DHT22;7738;49.532;11.156;2022-12-11T20:05:27;-3.60;99.90
15274;DHT22;7738;49.532;11.156;2022-12-11T20:07:57;-3.70;99.90
15274;DHT22;7738;49.532;11.156;2022-12-11T20:10:50;-4.10;99.90
15274;DHT22;7738;49.532;11.156;2022-12-11T20:13:20;-3.80;99.90
15274;DHT22;7738;49.532;11.156;2022-12-11T20:15:50;-3.60;99.90
15274;DHT22;7738;49.532;11.156;2022-12-11T20:18:20;-3.70;99.90
15274;DHT22;7738;49.532;11.156;2022-12-11T20:20:51;-3.60;99.90
15274;DHT22;7738;49.532;11.156;2022-12-11T20:23:21;-3.40;99.90
15274;DHT22;7738;49.532;11.156;2022-12-11T20:25:53;-3.80;99.90
15274;DHT22;7738;49.532;11.156;2022-12-11T20:31:02;-3.60;99.90
15274;DHT22;7738;49.532;11.156;2022-12-11T20:33:32;-3.80;99.90
15274;DHT22;7738;49.532;11.156;2022-12-11T20:36:06;-3.50;99.90
15274;DHT22;7738;49.532;11.156;2022-12-11T20:38:36;-3.50;99.90
15274;DHT22;7738;49.532;11.156;2022-12-11T20:41:10;-3.70;99.90
15274;DHT22;7738;49.532;11.156;2022-12-11T20:43:41;-3.60;99.90
15274;DHT22;7738;49.532;11.156;2022-12-11T20:46:13;-3.60;99.90
15274;DHT22;7738;49.532;11.156;2022-12-11T20:51:17;-3.70;99.90
15274;DHT22;7738;49.532;11.156;2022-12-11T20:53:52;-3.50;99.90
15274;DHT22;7738;49.532;11.156;2022-12-11T20:56:29;-3.60;99.90
15274;DHT22;7738;49.532;11.156;2022-12-11T21:01:31;-3.60;99.90
15274;DHT22;7738;49.532;11.156;2022-12-11T21:04:01;-3.70;99.90
15274;DHT22;7738;49.532;11.156;2022-12-11T21:06:33;-3.80;99.90
15274;DHT22;7738;49.532;11.156;2022-12-11T21:09:07;-3.70;99.90
15274;DHT22;7738;49.532;11.156;2022-12-11T21:11:40;-3.60;99.90
15274;DHT22;7738;49.532;11.156;2022-12-11T21:14:10;-3.60;99.90
15274;DHT22;7738;49.532;11.156;2022-12-11T21:16:41;-3.70;99.90
15274;DHT22;7738;49.532;11.156;2022-12-11T21:19:12;-3.50;99.90
15274;DHT22;7738;49.532;11.156;2022-12-11T21:21:43;-3.60;99.90
15274;DHT22;7738;49.532;11.156;2022-12-11T21:24:16;-3.60;99.90
15274;DHT22;7738;49.532;11.156;2022-12-11T21:26:49;-3.50;99.90
15274;DHT22;7738;49.532;11.156;2022-12-11T21:34:21;-3.70;99.90
15274;DHT22;7738;49.532;11.156;2022-12-11T21:36:52;-3.70;99.90
15274;DHT22;7738;49.532;11.156;2022-12-11T21:39:26;-3.60;99.90
15274;DHT22;7738;49.532;11.156;2022-12-11T21:42:07;-3.60;99.90
15274;DHT22;7738;49.532;11.156;2022-12-11T21:44:37;-2.70;99.90
15274;DHT22;7738;49.532;11.156;2022-12-11T21:47:27;-3.80;99.90
15274;DHT22;7738;49.532;11.156;2022-12-11T21:49:57;-3.50;99.90
15274;DHT22;7738;49.532;11.156;2022-12-11T21:54:57;-3.60;99.90
15274;DHT22;7738;49.532;11.156;2022-12-11T21:57:30;-3.80;99.90
15274;DHT22;7738;49.532;11.156;2022-12-11T22:02:37;-3.60;99.90
15274;DHT22;7738;49.532;11.156;2022-12-11T22:05:08;-3.70;99.90
15274;DHT22;7738;49.532;11.156;2022-12-11T22:07:38;-3.90;99.90
15274;DHT22;7738;49.532;11.156;2022-12-11T22:10:09;-3.90;99.90
15274;DHT22;7738;49.532;11.156;2022-12-11T22:12:42;-3.80;99.90
15274;DHT22;7738;49.532;11.156;2022-12-11T22:15:12;-3.10;99.90
15274;DHT22;7738;49.532;11.156;2022-12-11T22:17:42;-3.70;99.90
15274;DHT22;7738;49.532;11.156;2022-12-11T22:20:11;-3.60;99.90
15274;DHT22;7738;49.532;11.156;2022-12-11T22:25:12;-3.90;99.90
15274;DHT22;7738;49.532;11.156;2022-12-11T22:27:45;-4.00;99.90
15274;DHT22;7738;49.532;11.156;2022-12-11T22:30:15;-3.60;99.90
15274;DHT22;7738;49.532;11.156;2022-12-11T22:32:47;-3.70;99.90
15274;DHT22;7738;49.532;11.156;2022-12-11T22:35:17;-3.90;99.90
15274;DHT22;7738;49.532;11.156;2022-12-11T22:37:53;-2.80;99.90
15274;DHT22;7738;49.532;11.156;2022-12-11T22:40:23;-3.20;99.90
15274;DHT22;7738;49.532;11.156;2022-12-11T22:42:55;-4.00;99.90
15274;DHT22;7738;49.532;11.156;2022-12-11T22:45:25;-3.90;99.90
15274;DHT22;7738;49.532;11.156;2022-12-11T22:47:55;-3.90;99.90
15274;DHT22;7738;49.532;11.156;2022-12-11T22:50:25;-3.60;99.90
15274;DHT22;7738;49.532;11.156;2022-12-11T22:52:55;-3.80;99.90
15274;DHT22;7738;49.532;11.156;2022-12-11T22:55:25;-3.60;99.90
15274;DHT22;7738;49.532;11.156;2022-12-11T22:57:57;-4.10;99.90
15274;DHT22;7738;49.532;11.156;2022-12-11T23:02:58;-3.90;99.90
15274;DHT22;7738;49.532;11.156;2022-12-11T23:05:28;-3.90;99.90
15274;DHT22;7738;49.532;11.156;2022-12-11T23:07:58;-3.90;99.90
15274;DHT22;7738;49.532;11.156;2022-12-11T23:10:28;-4.00;99.90
15274;DHT22;7738;49.532;11.156;2022-12-11T23:13:00;-4.00;99.90
15274;DHT22;7738;49.532;11.156;2022-12-11T23:20:31;-3.70;99.90
15274;DHT22;7738;49.532;11.156;2022-12-11T23:28:04;-3.40;99.90
15274;DHT22;7738;49.532;11.156;2022-12-11T23:30:34;-3.80;99.90
15274;DHT22;7738;49.532;11.156;2022-12-11T23:33:04;-3.80;99.90
15274;DHT22;7738;49.532;11.156;2022-12-11T23:35:34;-3.80;99.90
15274;DHT22;7738;49.532;11.156;2022-12-11T23:38:04;-3.90;99.90
15274;DHT22;7738;49.532;11.156;2022-12-11T23:40:35;-4.10;99.90
15274;DHT22;7738;49.532;11.156;2022-12-11T23:43:07;-3.90;99.90
15274;DHT22;7738;49.532;11.156;2022-12-11T23:45:37;-3.70;99.90
15274;DHT22;7738;49.532;11.156;2022-12-11T23:48:07;-4.20;99.90
15274;DHT22;7738;49.532;11.156;2022-12-11T23:50:38;-3.90;99.90
15274;DHT22;7738;49.532;11.156;2022-12-11T23:53:09;-3.80;99.90
15274;DHT22;7738;49.532;11.156;2022-12-11T23:58:12;-3.70;99.90
